This is the latest recevied weather packets stored in our database for station/object N5ATR. If no packets are shown the sender has not sent any weather packets the latest 1 day(s).
| Time | Temp. | Humidity | Pressure | Rain* | Wind** | Luminosity | Snow |
|---|---|---|---|---|---|---|---|
| 1778032589 | 8.89° C | 66% | 1010.2 hPa | 0 mm | - | 2 W/m² | - |
| 1778032285 | 9.44° C | 64% | 1010.2 hPa | 0 mm | - | 5 W/m² | - |
| 1778031983 | 10° C | 63% | 1010 hPa | 0 mm | - | 7 W/m² | - |
| 1778031678 | 10° C | 63% | 1010.1 hPa | 0 mm | - | 22 W/m² | - |
| 1778031377 | 9.44° C | 63% | 1010 hPa | 0 mm | - | 23 W/m² | - |
| 1778030769 | 9.44° C | 62% | 1009.8 hPa | 0 mm | - | 16 W/m² | - |
| 1778030466 | 10.56° C | 60% | 1010.1 hPa | 0 mm | - | 19 W/m² | - |
| 1778030164 | 10.56° C | 58% | 1010 hPa | 0 mm | - | 45 W/m² | - |
| 1778029554 | 11.11° C | 58% | 1009.6 hPa | 0 mm | - | 21 W/m² | - |
| 1778029250 | 11.11° C | 58% | 1009.5 hPa | 0 mm | - | 18 W/m² | - |
| 1778028947 | 11.11° C | 58% | 1009.5 hPa | 0 mm | - | 28 W/m² | - |
| 1778028643 | 11.11° C | 58% | 1010 hPa | 0 mm | - | 44 W/m² | - |
| 1778028037 | 11.67° C | 56% | 1009.6 hPa | 0 mm | - | 41 W/m² | - |
| 1778027734 | 11.67° C | 56% | 1009.7 hPa | 0 mm | - | 37 W/m² | - |
| 1778027430 | 11.67° C | 55% | 1009.3 hPa | 0 mm | - | 35 W/m² | - |
| 1778027126 | 12.22° C | 54% | 1009.6 hPa | 0 mm | - | 65 W/m² | - |
| 1778026822 | 11.67° C | 55% | 1009.6 hPa | 0 mm | - | 69 W/m² | - |
| 1778026216 | 13.33° C | 50% | 1009.7 hPa | 0 mm | - | 111 W/m² | - |
| 1778022584 | 13.33° C | 54% | 1009.6 hPa | 0 mm | - | 362 W/m² | - |
| 1778020158 | 11.11° C | 64% | 1010.3 hPa | 0 mm | - | 500 W/m² | - |
| 1778019248 | 11.67° C | 60% | 1010.2 hPa | 0 mm | - | 239 W/m² | - |
| 1778018037 | 12.78° C | 58% | 1010.1 hPa | 0 mm | - | 202 W/m² | - |
| 1778017735 | 13.33° C | 57% | 1010.1 hPa | 0 mm | - | 173 W/m² | - |
| 1778017432 | 13.89° C | 55% | 1009.8 hPa | 0 mm | - | 545 W/m² | - |
| 1778016220 | 14.44° C | 54% | 1010.3 hPa | 0 mm | - | 196 W/m² | - |
* Rain latest hour (hover to see other rain measurements)
** Current wind speed in m/s (hover to see current wind gust speed)